createdAt,value
2022-09-01T00:01:43.869Z,14.70
2022-09-01T00:04:16.004Z,14.70
2022-09-01T00:06:43.684Z,14.70
2022-09-01T00:09:15.741Z,14.70
2022-09-01T00:11:50.296Z,14.70
2022-09-01T00:14:29.945Z,14.70
2022-09-01T00:16:59.512Z,14.60
2022-09-01T00:19:26.786Z,14.70
2022-09-01T00:21:54.826Z,14.60
2022-09-01T00:24:22.031Z,14.60
2022-09-01T00:26:49.278Z,14.60
2022-09-01T00:29:16.654Z,14.60
2022-09-01T00:31:43.901Z,14.60
2022-09-01T00:34:11.517Z,14.60
2022-09-01T00:36:38.829Z,14.60
2022-09-01T00:39:06.490Z,14.60
2022-09-01T00:41:34.932Z,14.60
2022-09-01T00:44:05.409Z,14.60
2022-09-01T00:46:47.386Z,14.60
2022-09-01T00:49:23.598Z,14.60
2022-09-01T00:51:53.298Z,14.60
2022-09-01T00:54:23.218Z,14.60
2022-09-01T00:56:57.314Z,14.70
2022-09-01T00:59:25.835Z,14.60
2022-09-01T01:01:53.351Z,14.60
2022-09-01T01:04:20.657Z,14.60
2022-09-01T01:07:01.572Z,14.60
2022-09-01T01:09:32.055Z,14.60
2022-09-01T01:12:00.239Z,14.70
2022-09-01T01:14:31.901Z,14.70
2022-09-01T01:16:59.942Z,14.60
2022-09-01T01:20:14.358Z,14.60
2022-09-01T01:23:03.422Z,14.60
2022-09-01T01:25:44.250Z,14.60
2022-09-01T01:28:15.857Z,14.60
2022-09-01T01:30:45.740Z,14.60
2022-09-01T01:33:13.048Z,14.60
2022-09-01T01:35:42.305Z,14.60
2022-09-01T01:38:09.831Z,14.60
2022-09-01T01:40:37.789Z,14.60
2022-09-01T01:43:05.339Z,14.60
2022-09-01T01:45:32.601Z,14.50
2022-09-01T01:48:01.276Z,14.50
2022-09-01T01:50:33.397Z,14.50
2022-09-01T01:53:02.937Z,14.50
2022-09-01T01:55:40.500Z,14.50
2022-09-01T01:58:12.542Z,14.40
2022-09-01T02:00:46.643Z,14.40
2022-09-01T02:03:18.938Z,14.40
2022-09-01T02:05:48.110Z,14.40
2022-09-01T02:08:15.588Z,14.40
2022-09-01T02:10:44.678Z,14.40
2022-09-01T02:13:16.411Z,14.40
2022-09-01T02:15:46.121Z,14.40
2022-09-01T02:18:16.403Z,14.30
2022-09-01T02:20:44.929Z,14.30
2022-09-01T02:23:12.282Z,14.30
2022-09-01T02:25:59.035Z,14.30
2022-09-01T02:28:31.927Z,14.30
2022-09-01T02:31:00.042Z,14.30
2022-09-01T02:33:28.402Z,14.30
2022-09-01T02:35:58.435Z,14.40
2022-09-01T02:38:27.163Z,14.30
2022-09-01T02:40:54.831Z,14.40
2022-09-01T02:43:22.256Z,14.40
2022-09-01T02:45:55.416Z,14.40
2022-09-01T02:48:35.771Z,14.30
2022-09-01T02:51:05.840Z,14.30
2022-09-01T02:53:34.839Z,14.20
2022-09-01T02:56:03.916Z,14.20
2022-09-01T02:58:40.761Z,14.20
2022-09-01T03:01:32.187Z,14.20
2022-09-01T03:04:02.750Z,14.20
2022-09-01T03:06:33.979Z,14.20
2022-09-01T03:09:01.919Z,14.20
2022-09-01T03:11:31.504Z,14.20
2022-09-01T03:13:59.098Z,14.20
2022-09-01T03:16:26.617Z,14.20
2022-09-01T03:18:53.896Z,14.20
2022-09-01T03:21:21.396Z,14.10
2022-09-01T03:23:49.733Z,14.10
2022-09-01T03:26:18.924Z,14.10
2022-09-01T03:28:46.526Z,14.10
2022-09-01T03:31:14.308Z,14.10
2022-09-01T03:33:42.198Z,14.10
2022-09-01T03:36:19.578Z,14.10
2022-09-01T03:38:48.741Z,14.10
2022-09-01T03:41:18.230Z,14.10
2022-09-01T03:43:46.997Z,14.10
2022-09-01T03:46:21.294Z,14.10
2022-09-01T03:48:54.916Z,14.10
2022-09-01T03:51:23.150Z,14.10
2022-09-01T03:53:54.618Z,14.10
2022-09-01T03:56:28.451Z,14.10
2022-09-01T03:58:57.785Z,14.10
2022-09-01T04:01:26.797Z,14.10
2022-09-01T04:03:54.257Z,14.10
2022-09-01T04:06:25.946Z,14.10
2022-09-01T04:08:56.639Z,14.10
2022-09-01T04:11:24.127Z,14.00
2022-09-01T04:13:52.956Z,14.10
2022-09-01T04:16:41.685Z,14.00
2022-09-01T04:19:21.224Z,14.10
2022-09-01T04:21:54.205Z,14.00
2022-09-01T04:24:24.157Z,14.10
2022-09-01T04:26:52.648Z,14.00
2022-09-01T04:29:27.419Z,14.00
2022-09-01T04:31:57.104Z,14.00
2022-09-01T04:34:24.782Z,14.00
2022-09-01T04:36:55.867Z,14.00
2022-09-01T04:39:23.213Z,14.00
2022-09-01T04:41:54.218Z,13.90
2022-09-01T04:44:28.170Z,13.90
2022-09-01T04:46:56.691Z,13.90
2022-09-01T04:49:28.579Z,13.90
2022-09-01T04:51:57.508Z,13.90
2022-09-01T04:54:25.340Z,13.90
2022-09-01T04:56:52.933Z,13.90
2022-09-01T04:59:22.357Z,13.90
2022-09-01T05:02:00.398Z,13.90
2022-09-01T05:04:33.772Z,13.90
2022-09-01T05:07:01.965Z,13.90
2022-09-01T05:09:38.301Z,13.90
2022-09-01T05:12:12.728Z,13.90
2022-09-01T05:14:48.290Z,13.90
2022-09-01T05:17:18.577Z,13.90
2022-09-01T05:19:47.702Z,13.90
2022-09-01T05:22:17.659Z,13.80
2022-09-01T05:24:54.999Z,13.80
2022-09-01T05:27:25.240Z,13.90
2022-09-01T05:29:55.270Z,13.90
2022-09-01T05:32:26.024Z,13.90
2022-09-01T05:34:54.047Z,13.90
2022-09-01T05:37:36.412Z,13.90
2022-09-01T05:40:31.516Z,13.90
2022-09-01T05:43:00.918Z,13.90
2022-09-01T05:45:28.363Z,13.90
2022-09-01T05:47:58.939Z,14.00
2022-09-01T05:50:28.184Z,13.90
2022-09-01T05:52:56.121Z,13.90
2022-09-01T05:55:27.918Z,14.00
2022-09-01T05:57:56.837Z,14.00
2022-09-01T06:00:25.251Z,14.00
2022-09-01T06:02:53.636Z,14.00
2022-09-01T06:05:22.071Z,14.10
2022-09-01T06:07:51.958Z,14.20
2022-09-01T06:10:19.617Z,14.20
2022-09-01T06:12:48.784Z,14.20
2022-09-01T06:15:18.544Z,14.20
2022-09-01T06:17:49.737Z,14.20
2022-09-01T06:20:18.925Z,14.20
2022-09-01T06:22:47.504Z,14.30
2022-09-01T06:25:17.345Z,14.40
2022-09-01T06:27:48.037Z,14.40
2022-09-01T06:30:23.531Z,14.50
2022-09-01T06:33:02.119Z,14.50
2022-09-01T06:35:29.876Z,14.50
2022-09-01T06:37:58.621Z,14.40
2022-09-01T06:40:41.496Z,14.50
2022-09-01T06:43:09.721Z,14.50
2022-09-01T06:45:55.466Z,14.50
2022-09-01T06:48:24.223Z,14.50
2022-09-01T06:53:44.083Z,14.50
2022-09-01T06:56:13.703Z,14.50
2022-09-01T06:58:41.982Z,14.50
2022-09-01T07:01:15.960Z,14.60
2022-09-01T07:03:43.649Z,14.60
2022-09-01T07:09:47.285Z,14.60
2022-09-01T07:17:58.514Z,14.50
2022-09-01T07:20:27.570Z,14.50
2022-09-01T07:26:01.580Z,14.60
2022-09-01T07:28:37.313Z,14.60
2022-09-01T07:33:55.654Z,14.60
2022-09-01T07:42:30.882Z,14.60
2022-09-01T07:42:56.129Z,14.50
2022-09-01T07:45:58.309Z,14.60
2022-09-01T07:51:36.057Z,14.60
2022-09-01T07:54:04.489Z,14.70
2022-09-01T07:56:34.189Z,14.70
2022-09-01T07:59:03.676Z,14.70
2022-09-01T08:01:32.463Z,14.70
2022-09-01T08:04:02.031Z,14.70
2022-09-01T08:06:37.977Z,14.80
2022-09-01T08:09:07.318Z,14.90
2022-09-01T08:14:26.660Z,15.00
2022-09-01T08:17:56.757Z,15.00
2022-09-01T08:20:26.147Z,15.00
2022-09-01T08:22:59.440Z,15.10
2022-09-01T08:25:33.774Z,15.10
2022-09-01T08:28:01.818Z,15.20
2022-09-01T08:30:32.367Z,15.20
2022-09-01T08:33:10.188Z,15.20
2022-09-01T08:35:39.845Z,15.30
2022-09-01T08:38:07.428Z,15.40
2022-09-01T08:40:34.815Z,15.40
2022-09-01T08:43:25.752Z,15.50
2022-09-01T08:45:55.875Z,15.50
2022-09-01T08:51:40.818Z,15.50
2022-09-01T08:54:31.904Z,15.60
2022-09-01T08:57:14.531Z,15.60
2022-09-01T09:00:00.822Z,15.70
2022-09-01T09:03:06.148Z,15.70
2022-09-01T09:06:10.738Z,15.80
2022-09-01T09:09:00.950Z,15.80
2022-09-01T09:12:02.517Z,15.90
2022-09-01T09:14:52.923Z,16.00
2022-09-01T09:17:23.224Z,16.00
2022-09-01T09:19:50.880Z,16.00
2022-09-01T09:22:19.676Z,16.00
2022-09-01T09:24:52.837Z,16.00
2022-09-01T09:27:23.104Z,16.10
2022-09-01T09:29:54.730Z,16.10
2022-09-01T09:32:25.716Z,16.10
2022-09-01T09:34:59.564Z,16.20
2022-09-01T09:37:30.483Z,16.30
2022-09-01T09:40:11.834Z,16.30
2022-09-01T09:42:40.025Z,16.30
2022-09-01T09:45:24.721Z,16.50
2022-09-01T09:47:52.211Z,16.70
2022-09-01T09:50:28.714Z,16.80
2022-09-01T09:53:16.177Z,17.00
2022-09-01T09:55:55.768Z,17.20
2022-09-01T09:58:26.490Z,17.30
2022-09-01T10:01:06.098Z,17.30
2022-09-01T10:03:42.714Z,17.20
2022-09-01T10:06:12.098Z,17.10
2022-09-01T10:08:48.067Z,17.00
2022-09-01T10:11:33.418Z,16.90
2022-09-01T10:14:06.758Z,16.90
2022-09-01T10:16:34.299Z,16.90
2022-09-01T10:19:01.928Z,16.90
2022-09-01T10:21:40.266Z,17.00
2022-09-01T10:24:21.122Z,17.10
2022-09-01T10:26:52.081Z,17.20
2022-09-01T10:29:25.578Z,17.30
2022-09-01T10:32:14.859Z,17.50
2022-09-01T10:34:42.254Z,17.70
2022-09-01T10:37:11.354Z,17.80
2022-09-01T10:40:14.120Z,17.90
2022-09-01T10:42:45.302Z,17.80
2022-09-01T10:45:32.153Z,17.70
2022-09-01T10:48:33.625Z,17.60
2022-09-01T10:51:18.260Z,17.60
2022-09-01T10:53:47.023Z,17.70
2022-09-01T10:56:28.526Z,17.80
2022-09-01T11:02:28.142Z,18.10
2022-09-01T11:04:59.612Z,18.20
2022-09-01T11:07:50.563Z,18.40
2022-09-01T11:10:36.865Z,18.50
2022-09-01T11:13:15.725Z,18.60
2022-09-01T11:15:44.817Z,18.60
2022-09-01T11:18:27.260Z,18.80
2022-09-01T11:20:55.489Z,18.90
2022-09-01T11:23:28.077Z,18.90
2022-09-01T11:28:45.102Z,18.80
2022-09-01T11:31:27.059Z,18.80
2022-09-01T11:34:10.626Z,18.80
2022-09-01T11:36:47.329Z,18.80
2022-09-01T11:39:19.057Z,19.00
2022-09-01T11:42:04.462Z,19.10
2022-09-01T11:45:15.467Z,19.20
2022-09-01T11:48:00.539Z,19.30
2022-09-01T11:50:29.507Z,19.20
2022-09-01T11:53:05.463Z,19.10
2022-09-01T11:55:33.862Z,19.10
2022-09-01T11:58:01.126Z,19.10
2022-09-01T12:00:30.735Z,19.00
2022-09-01T12:02:58.059Z,19.00
2022-09-01T12:05:32.698Z,18.90
2022-09-01T12:08:01.907Z,18.90
2022-09-01T12:10:31.259Z,18.90
2022-09-01T12:13:11.376Z,18.80
2022-09-01T12:16:00.508Z,18.90
2022-09-01T12:18:46.967Z,19.10
2022-09-01T12:21:34.081Z,19.00
2022-09-01T12:24:17.542Z,19.00
2022-09-01T12:26:48.657Z,19.20
2022-09-01T12:29:16.352Z,19.40
2022-09-01T12:31:45.344Z,19.40
2022-09-01T12:34:40.893Z,19.30
2022-09-01T12:37:11.641Z,19.00
2022-09-01T12:39:41.288Z,18.90
2022-09-01T12:42:21.090Z,18.80
2022-09-01T12:44:50.854Z,18.70
2022-09-01T12:47:33.491Z,18.60
2022-09-01T12:50:03.438Z,18.50
2022-09-01T12:52:31.451Z,18.50
2022-09-01T12:54:58.860Z,18.60
2022-09-01T12:57:32.270Z,18.70
2022-09-01T13:00:23.615Z,18.90
2022-09-01T13:03:11.537Z,19.20
2022-09-01T13:05:42.314Z,19.40
2022-09-01T13:08:30.255Z,19.60
2022-09-01T13:11:09.078Z,19.80
2022-09-01T13:13:36.981Z,20.10
2022-09-01T13:16:13.152Z,20.10
2022-09-01T13:21:30.326Z,19.90
2022-09-01T13:23:57.783Z,19.90
2022-09-01T13:26:26.276Z,19.80
2022-09-01T13:28:54.062Z,19.60
2022-09-01T13:31:29.128Z,19.50
2022-09-01T13:34:23.325Z,19.40
2022-09-01T13:36:49.459Z,19.30
2022-09-01T13:39:17.426Z,19.20
2022-09-01T13:41:47.072Z,19.20
2022-09-01T13:44:14.662Z,19.10
2022-09-01T13:50:06.681Z,19.40
2022-09-01T13:52:16.500Z,19.50
2022-09-01T13:54:44.462Z,19.60
2022-09-01T13:57:11.888Z,19.70
2022-09-01T13:59:39.084Z,19.80
2022-09-01T14:02:06.386Z,19.80
2022-09-01T14:04:33.802Z,19.70
2022-09-01T14:07:01.086Z,19.80
2022-09-01T14:09:28.258Z,19.80
2022-09-01T14:11:55.648Z,19.80
2022-09-01T14:14:22.954Z,19.90
2022-09-01T14:16:50.405Z,19.80
2022-09-01T14:19:18.066Z,19.80
2022-09-01T14:21:45.738Z,19.80
2022-09-01T14:24:13.799Z,19.80
2022-09-01T14:26:41.465Z,19.80
2022-09-01T14:29:09.265Z,19.80
2022-09-01T14:31:37.684Z,19.70
2022-09-01T14:34:05.171Z,19.70
2022-09-01T14:36:32.346Z,19.60
2022-09-01T14:38:59.831Z,19.50
2022-09-01T14:41:27.374Z,19.50
2022-09-01T14:43:57.525Z,19.60
2022-09-01T14:46:26.359Z,19.50
2022-09-01T14:48:53.805Z,19.60
2022-09-01T14:51:23.974Z,19.70
2022-09-01T14:53:52.122Z,19.60
2022-09-01T14:56:19.619Z,19.60
2022-09-01T14:58:47.422Z,19.60
2022-09-01T15:01:33.214Z,19.50
2022-09-01T15:04:02.195Z,19.50
2022-09-01T15:06:29.472Z,19.50
2022-09-01T15:08:56.732Z,19.50
2022-09-01T15:11:24.085Z,19.50
2022-09-01T15:13:52.110Z,19.50
2022-09-01T15:16:22.483Z,19.40
2022-09-01T15:18:49.818Z,19.40
2022-09-01T15:21:21.625Z,19.30
2022-09-01T15:23:49.700Z,19.30
2022-09-01T15:26:17.427Z,19.20
2022-09-01T15:28:45.078Z,19.20
2022-09-01T15:31:13.111Z,19.20
2022-09-01T15:33:43.947Z,19.20
2022-09-01T15:36:16.125Z,19.20
2022-09-01T15:38:43.394Z,19.20
2022-09-01T15:41:15.828Z,19.20
2022-09-01T15:43:43.036Z,19.20
2022-09-01T15:46:11.957Z,19.20
2022-09-01T15:48:39.328Z,19.10
2022-09-01T15:51:34.858Z,19.10
2022-09-01T15:54:04.699Z,19.10
2022-09-01T15:56:32.067Z,19.10
2022-09-01T15:59:01.235Z,19.10
2022-09-01T16:01:30.305Z,19.10
2022-09-01T16:03:58.397Z,19.10
2022-09-01T16:06:26.219Z,19.00
2022-09-01T16:08:54.334Z,19.00
2022-09-01T16:11:23.358Z,19.00
2022-09-01T16:13:53.826Z,19.00
2022-09-01T16:16:32.247Z,18.90
2022-09-01T16:19:12.922Z,18.90
2022-09-01T16:22:01.701Z,18.80
2022-09-01T16:24:29.028Z,18.90
2022-09-01T16:26:56.643Z,18.80
2022-09-01T16:29:40.984Z,18.80
2022-09-01T16:32:11.770Z,18.80
2022-09-01T16:34:46.843Z,18.70
2022-09-01T16:37:20.190Z,18.70
2022-09-01T16:39:57.066Z,18.70
2022-09-01T16:42:27.897Z,18.60
2022-09-01T16:45:20.721Z,18.60
2022-09-01T16:48:09.289Z,18.60
2022-09-01T16:50:57.546Z,18.50
2022-09-01T16:53:31.199Z,18.50
2022-09-01T16:56:14.394Z,18.40
2022-09-01T16:58:49.190Z,18.40
2022-09-01T17:01:34.635Z,18.40
2022-09-01T17:04:32.449Z,18.30
2022-09-01T17:07:31.203Z,18.30
2022-09-01T17:10:16.515Z,18.20
2022-09-01T17:12:48.941Z,18.10
2022-09-01T17:15:19.860Z,18.10
2022-09-01T17:17:49.388Z,18.00
2022-09-01T17:20:16.979Z,18.00
2022-09-01T17:22:50.958Z,17.90
2022-09-01T17:25:41.101Z,17.90
2022-09-01T17:28:10.906Z,17.90
2022-09-01T17:30:44.907Z,17.90
2022-09-01T17:33:33.851Z,17.80
2022-09-01T17:36:20.151Z,17.80
2022-09-01T17:39:09.178Z,17.70
2022-09-01T17:41:41.315Z,17.60
2022-09-01T17:44:43.096Z,17.60
2022-09-01T17:47:23.158Z,17.50
2022-09-01T17:50:12.083Z,17.40
2022-09-01T17:52:52.662Z,17.40
2022-09-01T17:55:55.055Z,17.30
2022-09-01T17:58:31.376Z,17.30
2022-09-01T18:01:24.397Z,17.30
2022-09-01T18:04:06.368Z,17.20
2022-09-01T18:06:49.498Z,17.10
2022-09-01T18:09:17.496Z,17.10
2022-09-01T18:11:53.976Z,17.10
2022-09-01T18:14:22.490Z,17.10
2022-09-01T18:16:55.723Z,17.00
2022-09-01T18:19:26.571Z,16.90
2022-09-01T18:21:56.742Z,16.90
2022-09-01T18:24:47.629Z,16.90
2022-09-01T18:27:15.109Z,16.80
2022-09-01T18:29:42.328Z,16.80
2022-09-01T18:32:34.380Z,16.70
2022-09-01T18:35:27.463Z,16.70
2022-09-01T18:38:18.116Z,16.70
2022-09-01T18:41:11.551Z,16.60
2022-09-01T18:44:09.323Z,16.60
2022-09-01T18:47:04.300Z,16.50
2022-09-01T18:49:49.704Z,16.40
2022-09-01T18:52:47.127Z,16.40
2022-09-01T18:55:21.753Z,16.40
2022-09-01T18:57:52.610Z,16.30
2022-09-01T19:00:20.843Z,16.30
2022-09-01T19:03:25.317Z,16.30
2022-09-01T19:06:05.666Z,16.20
2022-09-01T19:08:48.322Z,16.20
2022-09-01T19:11:30.541Z,16.10
2022-09-01T19:14:03.708Z,16.10
2022-09-01T19:16:49.357Z,16.00
2022-09-01T19:19:38.121Z,16.00
2022-09-01T19:22:05.690Z,15.90
2022-09-01T19:24:50.978Z,15.90
2022-09-01T19:27:28.322Z,15.90
2022-09-01T19:29:58.719Z,15.80
2022-09-01T19:32:27.327Z,15.80
2022-09-01T19:34:59.717Z,15.70
2022-09-01T19:37:27.125Z,15.70
2022-09-01T19:39:54.705Z,15.70
2022-09-01T19:42:39.441Z,15.70
2022-09-01T19:45:26.960Z,15.70
2022-09-01T19:48:19.077Z,15.70
2022-09-01T19:50:54.433Z,15.60
2022-09-01T19:53:42.926Z,15.60
2022-09-01T19:56:24.804Z,15.60
2022-09-01T19:59:09.514Z,15.50
2022-09-01T20:01:49.913Z,15.50
2022-09-01T20:04:32.398Z,15.50
2022-09-01T20:07:00.560Z,15.50
2022-09-01T20:09:42.397Z,15.50
2022-09-01T20:12:14.636Z,15.50
2022-09-01T20:14:56.898Z,15.50
2022-09-01T20:17:48.731Z,15.50
2022-09-01T20:20:23.793Z,15.40
2022-09-01T20:22:53.878Z,15.50
2022-09-01T20:25:25.921Z,15.40
2022-09-01T20:28:23.676Z,15.40
2022-09-01T20:30:55.440Z,15.40
2022-09-01T20:33:37.097Z,15.40
2022-09-01T20:36:25.083Z,15.30
2022-09-01T20:39:16.674Z,15.30
2022-09-01T20:42:04.906Z,15.20
2022-09-01T20:44:48.090Z,15.20
2022-09-01T20:47:15.307Z,15.20
2022-09-01T20:49:42.576Z,15.10
2022-09-01T20:52:12.505Z,15.10
2022-09-01T20:54:47.398Z,15.10
2022-09-01T20:57:47.262Z,15.00
2022-09-01T21:00:19.522Z,15.00
2022-09-01T21:03:02.098Z,14.90
2022-09-01T21:05:41.212Z,14.90
2022-09-01T21:08:27.075Z,14.90
2022-09-01T21:11:00.218Z,14.80
2022-09-01T21:13:46.351Z,14.80
2022-09-01T21:16:46.859Z,14.70
2022-09-01T21:19:18.477Z,14.80
2022-09-01T21:21:47.956Z,14.70
2022-09-01T21:24:15.147Z,14.70
2022-09-01T21:26:44.248Z,14.60
2022-09-01T21:29:49.753Z,14.60
2022-09-01T21:32:17.061Z,14.60
2022-09-01T21:34:44.838Z,14.60
2022-09-01T21:37:13.658Z,14.50
2022-09-01T21:39:40.918Z,14.50
2022-09-01T21:42:08.858Z,14.50
2022-09-01T21:44:36.251Z,14.40
2022-09-01T21:47:03.614Z,14.40
2022-09-01T21:49:30.784Z,14.40
2022-09-01T21:52:00.568Z,14.30
2022-09-01T21:54:27.765Z,14.30
2022-09-01T21:56:54.925Z,14.30
2022-09-01T21:59:22.145Z,14.30
2022-09-01T22:01:49.657Z,14.20
2022-09-01T22:04:18.177Z,14.20
2022-09-01T22:06:45.687Z,14.20
2022-09-01T22:09:20.447Z,14.20
2022-09-01T22:11:49.819Z,14.10
2022-09-01T22:14:18.700Z,14.10
2022-09-01T22:16:46.273Z,14.10
2022-09-01T22:19:13.769Z,14.00
2022-09-01T22:21:41.750Z,14.00
2022-09-01T22:24:09.298Z,14.00
2022-09-01T22:26:36.795Z,14.00
2022-09-01T22:29:05.447Z,14.00
2022-09-01T22:31:33.215Z,14.00
2022-09-01T22:34:00.495Z,13.90
2022-09-01T22:36:29.705Z,13.90
2022-09-01T22:38:58.770Z,13.90
2022-09-01T22:41:27.388Z,13.80
2022-09-01T22:43:56.141Z,13.80
2022-09-01T22:46:23.501Z,13.80
2022-09-01T22:48:50.926Z,13.80
2022-09-01T22:51:18.434Z,13.80
2022-09-01T22:53:45.863Z,13.80
2022-09-01T22:56:20.207Z,13.70
2022-09-01T22:58:48.178Z,13.70
2022-09-01T23:01:17.738Z,13.70
2022-09-01T23:03:45.024Z,13.70
2022-09-01T23:06:14.244Z,13.60
2022-09-01T23:08:52.446Z,13.60
2022-09-01T23:11:19.698Z,13.60
2022-09-01T23:13:47.192Z,13.60
2022-09-01T23:16:15.568Z,13.60
2022-09-01T23:18:43.939Z,13.60
2022-09-01T23:21:16.737Z,13.60
2022-09-01T23:23:43.943Z,13.60
2022-09-01T23:26:12.150Z,13.60
2022-09-01T23:28:40.423Z,13.50
2022-09-01T23:31:11.904Z,13.50
2022-09-01T23:33:39.116Z,13.50
2022-09-01T23:36:08.293Z,13.50
2022-09-01T23:38:35.713Z,13.50
2022-09-01T23:41:06.515Z,13.50
2022-09-01T23:43:33.753Z,13.50
2022-09-01T23:46:01.023Z,13.40
2022-09-01T23:48:28.256Z,13.40
2022-09-01T23:50:57.580Z,13.40
2022-09-01T23:53:29.323Z,13.40
2022-09-01T23:55:58.900Z,13.40
2022-09-01T23:58:26.540Z,13.30
